sensor_id;sensor_type;location;lat;lon;timestamp;pressure;altitude;pressure_sealevel;temperature;humidity
13033;BME280;6583;42.632;23.298;2023-02-10T00:00:19;73860.25;;;-146.40;63.89
13033;BME280;6583;42.632;23.298;2023-02-10T00:02:46;73854.19;;;-146.40;62.15
13033;BME280;6583;42.632;23.298;2023-02-10T00:05:15;73850.13;;;-146.40;63.16
13033;BME280;6583;42.632;23.298;2023-02-10T00:07:42;73854.19;;;-146.40;61.66
13033;BME280;6583;42.632;23.298;2023-02-10T00:10:09;73856.19;;;-146.40;61.53
13033;BME280;6583;42.632;23.298;2023-02-10T00:12:37;73860.25;;;-146.40;61.28
13033;BME280;6583;42.632;23.298;2023-02-10T00:15:05;73870.38;;;-146.40;61.76
13033;BME280;6583;42.632;23.298;2023-02-10T00:17:31;73866.31;;;-146.40;61.99
13033;BME280;6583;42.632;23.298;2023-02-10T00:19:58;73862.28;;;-146.40;61.86
13033;BME280;6583;42.632;23.298;2023-02-10T00:22:25;73878.47;;;-146.40;61.43
13033;BME280;6583;42.632;23.298;2023-02-10T00:24:51;73888.59;;;-146.40;61.64
13033;BME280;6583;42.632;23.298;2023-02-10T00:27:18;73884.56;;;-146.40;63.37
13033;BME280;6583;42.632;23.298;2023-02-10T00:29:50;73870.38;;;-146.40;65.24
13033;BME280;6583;42.632;23.298;2023-02-10T00:32:17;73837.97;;;-146.40;64.24
13033;BME280;6583;42.632;23.298;2023-02-10T00:34:44;73825.81;;;-146.40;62.22
13033;BME280;6583;42.632;23.298;2023-02-10T00:37:11;73817.72;;;-146.40;61.37
13033;BME280;6583;42.632;23.298;2023-02-10T00:39:38;73823.81;;;-146.40;59.97
13033;BME280;6583;42.632;23.298;2023-02-10T00:42:05;73825.81;;;-146.40;59.88
13033;BME280;6583;42.632;23.298;2023-02-10T00:44:31;73823.81;;;-146.40;61.61
13033;BME280;6583;42.632;23.298;2023-02-10T00:46:59;73803.53;;;-146.40;62.65
13033;BME280;6583;42.632;23.298;2023-02-10T00:49:26;73791.41;;;-146.40;60.48
13033;BME280;6583;42.632;23.298;2023-02-10T00:51:53;73793.41;;;-146.40;59.58
13033;BME280;6583;42.632;23.298;2023-02-10T00:54:19;73777.22;;;-146.40;61.08
13033;BME280;6583;42.632;23.298;2023-02-10T00:56:46;73761.03;;;-146.40;60.59
13033;BME280;6583;42.632;23.298;2023-02-10T00:59:13;73748.88;;;-146.40;59.60
13033;BME280;6583;42.632;23.298;2023-02-10T01:01:40;73736.72;;;-146.40;58.94
13033;BME280;6583;42.632;23.298;2023-02-10T01:04:08;73761.03;;;-146.40;58.34
13033;BME280;6583;42.632;23.298;2023-02-10T01:06:35;73763.03;;;-146.40;58.70
13033;BME280;6583;42.632;23.298;2023-02-10T01:09:05;73761.03;;;-146.40;59.44
13033;BME280;6583;42.632;23.298;2023-02-10T01:11:32;73769.13;;;-146.40;58.95
13033;BME280;6583;42.632;23.298;2023-02-10T01:13:58;73779.25;;;-146.40;58.86
13033;BME280;6583;42.632;23.298;2023-02-10T01:16:25;73767.09;;;-146.40;60.48
13033;BME280;6583;42.632;23.298;2023-02-10T01:18:52;73744.81;;;-146.40;59.92
13033;BME280;6583;42.632;23.298;2023-02-10T01:21:20;73740.78;;;-146.40;60.71
13033;BME280;6583;42.632;23.298;2023-02-10T01:23:47;73720.53;;;-146.40;61.09
13033;BME280;6583;42.632;23.298;2023-02-10T01:26:15;73710.41;;;-146.40;58.29
13033;BME280;6583;42.632;23.298;2023-02-10T01:28:41;73732.66;;;-146.40;57.86
13033;BME280;6583;42.632;23.298;2023-02-10T01:31:10;73744.81;;;-146.40;58.44
13033;BME280;6583;42.632;23.298;2023-02-10T01:33:38;73740.78;;;-146.40;59.26
13033;BME280;6583;42.632;23.298;2023-02-10T01:36:09;73732.66;;;-146.40;59.10
13033;BME280;6583;42.632;23.298;2023-02-10T01:38:37;73740.78;;;-146.40;58.11
13033;BME280;6583;42.632;23.298;2023-02-10T01:41:05;73740.78;;;-146.40;58.23
13033;BME280;6583;42.632;23.298;2023-02-10T01:43:32;73752.91;;;-146.40;58.12
13033;BME280;6583;42.632;23.298;2023-02-10T01:45:59;73769.13;;;-146.40;58.82
13033;BME280;6583;42.632;23.298;2023-02-10T01:48:27;73773.16;;;-146.40;59.36
13033;BME280;6583;42.632;23.298;2023-02-10T01:50:58;73765.06;;;-146.40;59.91
13033;BME280;6583;42.632;23.298;2023-02-10T01:53:26;73765.06;;;-146.40;59.96
13033;BME280;6583;42.632;23.298;2023-02-10T01:55:56;73756.97;;;-146.40;60.21
13033;BME280;6583;42.632;23.298;2023-02-10T01:58:28;73750.91;;;-146.40;60.02
13033;BME280;6583;42.632;23.298;2023-02-10T02:00:56;73761.03;;;-146.40;59.61
13033;BME280;6583;42.632;23.298;2023-02-10T02:03:22;73783.28;;;-146.40;60.17
13033;BME280;6583;42.632;23.298;2023-02-10T02:05:49;73805.56;;;-146.40;61.24
13033;BME280;6583;42.632;23.298;2023-02-10T02:08:18;73823.81;;;-146.40;61.26
13033;BME280;6583;42.632;23.298;2023-02-10T02:11:00;73831.91;;;-146.40;62.40
13033;BME280;6583;42.632;23.298;2023-02-10T02:13:39;73833.94;;;-146.40;62.73
13033;BME280;6583;42.632;23.298;2023-02-10T02:16:15;73833.94;;;-146.40;63.11
13033;BME280;6583;42.632;23.298;2023-02-10T02:18:56;73837.97;;;-146.40;63.83
13033;BME280;6583;42.632;23.298;2023-02-10T02:21:46;73819.75;;;-146.40;65.43
13033;BME280;6583;42.632;23.298;2023-02-10T02:24:29;73799.50;;;-146.40;63.95
13033;BME280;6583;42.632;23.298;2023-02-10T02:30:44;73837.97;;;-146.40;62.39
13033;BME280;6583;42.632;23.298;2023-02-10T02:33:14;73850.13;;;-146.40;63.35
13033;BME280;6583;42.632;23.298;2023-02-10T02:35:50;73858.22;;;-146.40;63.86
13033;BME280;6583;42.632;23.298;2023-02-10T02:38:18;73854.19;;;-146.40;64.80
13033;BME280;6583;42.632;23.298;2023-02-10T02:40:45;73840.00;;;-146.40;64.74
13033;BME280;6583;42.632;23.298;2023-02-10T02:43:11;73829.88;;;-146.40;64.97
13033;BME280;6583;42.632;23.298;2023-02-10T02:45:46;73813.69;;;-146.40;65.16
13033;BME280;6583;42.632;23.298;2023-02-10T02:48:27;73801.53;;;-146.40;64.66
13033;BME280;6583;42.632;23.298;2023-02-10T02:51:03;73807.59;;;-146.40;63.71
13033;BME280;6583;42.632;23.298;2023-02-10T02:53:36;73815.69;;;-146.40;64.02
13033;BME280;6583;42.632;23.298;2023-02-10T02:56:14;73829.88;;;-146.40;64.04
13033;BME280;6583;42.632;23.298;2023-02-10T02:58:51;73823.81;;;-146.40;65.82
13033;BME280;6583;42.632;23.298;2023-02-10T03:01:23;73807.59;;;-146.40;66.64
13033;BME280;6583;42.632;23.298;2023-02-10T03:03:54;73779.25;;;-146.40;66.87
13033;BME280;6583;42.632;23.298;2023-02-10T03:06:21;73765.06;;;-146.40;65.60
13033;BME280;6583;42.632;23.298;2023-02-10T03:08:48;73744.81;;;-146.40;63.95
13033;BME280;6583;42.632;23.298;2023-02-10T03:11:15;73748.88;;;-146.40;62.27
13033;BME280;6583;42.632;23.298;2023-02-10T03:13:41;73752.91;;;-146.40;62.04
13033;BME280;6583;42.632;23.298;2023-02-10T03:16:08;73759.00;;;-146.40;61.97
13033;BME280;6583;42.632;23.298;2023-02-10T03:18:35;73785.31;;;-146.40;62.15
13033;BME280;6583;42.632;23.298;2023-02-10T03:21:06;73817.72;;;-146.40;62.36
13033;BME280;6583;42.632;23.298;2023-02-10T03:23:32;73827.84;;;-146.40;63.06
13033;BME280;6583;42.632;23.298;2023-02-10T03:26:00;73827.84;;;-146.40;64.41
13033;BME280;6583;42.632;23.298;2023-02-10T03:28:27;73813.69;;;-146.40;64.06
13033;BME280;6583;42.632;23.298;2023-02-10T03:30:54;73805.56;;;-146.40;64.56
13033;BME280;6583;42.632;23.298;2023-02-10T03:33:21;73781.28;;;-146.40;65.37
13033;BME280;6583;42.632;23.298;2023-02-10T03:35:48;73765.06;;;-146.40;65.41
13033;BME280;6583;42.632;23.298;2023-02-10T03:38:16;73756.97;;;-146.40;64.50
13033;BME280;6583;42.632;23.298;2023-02-10T03:40:43;73728.63;;;-146.40;64.45
13033;BME280;6583;42.632;23.298;2023-02-10T03:43:10;73706.34;;;-146.40;63.43
13033;BME280;6583;42.632;23.298;2023-02-10T03:45:38;73696.22;;;-146.40;60.81
13033;BME280;6583;42.632;23.298;2023-02-10T03:48:05;73684.06;;;-146.40;60.66
13033;BME280;6583;42.632;23.298;2023-02-10T03:50:32;73673.94;;;-146.40;59.76
13033;BME280;6583;42.632;23.298;2023-02-10T03:52:58;73678.00;;;-146.40;58.41
13033;BME280;6583;42.632;23.298;2023-02-10T03:55:27;73716.47;;;-146.40;58.27
13033;BME280;6583;42.632;23.298;2023-02-10T03:57:54;73746.84;;;-146.40;58.59
13033;BME280;6583;42.632;23.298;2023-02-10T04:00:21;73773.16;;;-146.40;59.51
13033;BME280;6583;42.632;23.298;2023-02-10T04:02:47;73791.41;;;-146.40;60.05
13033;BME280;6583;42.632;23.298;2023-02-10T04:05:14;73801.53;;;-146.40;61.46
13033;BME280;6583;42.632;23.298;2023-02-10T04:07:41;73789.38;;;-146.40;63.44
13033;BME280;6583;42.632;23.298;2023-02-10T04:10:08;73769.13;;;-146.40;62.82
13033;BME280;6583;42.632;23.298;2023-02-10T04:12:36;73752.91;;;-146.40;61.33
13033;BME280;6583;42.632;23.298;2023-02-10T04:15:04;73746.84;;;-146.40;60.27
13033;BME280;6583;42.632;23.298;2023-02-10T04:17:30;73752.91;;;-146.40;59.77
13033;BME280;6583;42.632;23.298;2023-02-10T04:19:57;73777.22;;;-146.40;59.48
13033;BME280;6583;42.632;23.298;2023-02-10T04:22:24;73803.53;;;-146.40;60.26
13033;BME280;6583;42.632;23.298;2023-02-10T04:24:50;73829.88;;;-146.40;60.95
13033;BME280;6583;42.632;23.298;2023-02-10T04:27:17;73842.03;;;-146.40;61.73
13033;BME280;6583;42.632;23.298;2023-02-10T04:29:45;73842.03;;;-146.40;63.64
13033;BME280;6583;42.632;23.298;2023-02-10T04:32:12;73833.94;;;-146.40;63.17
13033;BME280;6583;42.632;23.298;2023-02-10T04:34:38;73831.91;;;-146.40;62.86
13033;BME280;6583;42.632;23.298;2023-02-10T04:37:05;73837.97;;;-146.40;62.42
13033;BME280;6583;42.632;23.298;2023-02-10T04:39:32;73850.13;;;-146.40;62.62
13033;BME280;6583;42.632;23.298;2023-02-10T04:41:59;73866.31;;;-146.40;63.26
13033;BME280;6583;42.632;23.298;2023-02-10T04:44:26;73886.59;;;-146.40;63.86
13033;BME280;6583;42.632;23.298;2023-02-10T04:46:54;73890.63;;;-146.40;64.18
13033;BME280;6583;42.632;23.298;2023-02-10T04:49:20;73900.75;;;-146.40;64.72
13033;BME280;6583;42.632;23.298;2023-02-10T04:51:47;73908.84;;;-146.40;64.71
13033;BME280;6583;42.632;23.298;2023-02-10T04:54:14;73914.94;;;-146.40;65.57
13033;BME280;6583;42.632;23.298;2023-02-10T04:56:40;73900.75;;;-146.40;67.49
13033;BME280;6583;42.632;23.298;2023-02-10T04:59:07;73878.47;;;-146.40;68.40
13033;BME280;6583;42.632;23.298;2023-02-10T05:01:34;73848.09;;;-146.40;68.83
13033;BME280;6583;42.632;23.298;2023-02-10T05:04:02;73817.72;;;-146.40;68.36
13033;BME280;6583;42.632;23.298;2023-02-10T05:06:29;73801.53;;;-146.40;64.23
13033;BME280;6583;42.632;23.298;2023-02-10T05:08:55;73831.91;;;-146.40;62.05
13033;BME280;6583;42.632;23.298;2023-02-10T05:11:22;73846.06;;;-146.40;61.57
13033;BME280;6583;42.632;23.298;2023-02-10T05:13:49;73862.28;;;-146.40;62.23
13033;BME280;6583;42.632;23.298;2023-02-10T05:16:16;73890.63;;;-146.40;62.56
13033;BME280;6583;42.632;23.298;2023-02-10T05:18:42;73894.69;;;-146.40;63.37
13033;BME280;6583;42.632;23.298;2023-02-10T05:21:12;73890.63;;;-146.40;64.21
13033;BME280;6583;42.632;23.298;2023-02-10T05:23:40;73882.53;;;-146.40;64.61
13033;BME280;6583;42.632;23.298;2023-02-10T05:26:07;73862.28;;;-146.40;64.39
13033;BME280;6583;42.632;23.298;2023-02-10T05:28:33;73868.34;;;-146.40;62.63
13033;BME280;6583;42.632;23.298;2023-02-10T05:31:00;73900.75;;;-146.40;62.83
13033;BME280;6583;42.632;23.298;2023-02-10T05:33:29;73931.13;;;-146.40;63.89
13033;BME280;6583;42.632;23.298;2023-02-10T05:35:55;73937.22;;;-146.40;64.31
13033;BME280;6583;42.632;23.298;2023-02-10T05:38:23;73939.25;;;-146.40;64.81
13033;BME280;6583;42.632;23.298;2023-02-10T05:40:51;73939.25;;;-146.40;65.84
13033;BME280;6583;42.632;23.298;2023-02-10T05:43:18;73951.38;;;-146.40;65.00
13033;BME280;6583;42.632;23.298;2023-02-10T05:45:45;73957.47;;;-146.40;65.35
13033;BME280;6583;42.632;23.298;2023-02-10T05:48:12;73943.28;;;-146.40;66.96
13033;BME280;6583;42.632;23.298;2023-02-10T05:50:38;73916.97;;;-146.40;69.57
13033;BME280;6583;42.632;23.298;2023-02-10T05:53:05;73878.47;;;-146.40;72.58
13033;BME280;6583;42.632;23.298;2023-02-10T05:55:33;73850.13;;;-146.40;72.11
13033;BME280;6583;42.632;23.298;2023-02-10T05:58:00;73833.94;;;-146.40;70.36
13033;BME280;6583;42.632;23.298;2023-02-10T06:00:26;73815.69;;;-146.40;68.76
13033;BME280;6583;42.632;23.298;2023-02-10T06:02:53;73807.59;;;-146.40;67.25
13033;BME280;6583;42.632;23.298;2023-02-10T06:05:20;73797.47;;;-146.40;66.01
13033;BME280;6583;42.632;23.298;2023-02-10T06:07:46;73779.25;;;-146.40;64.92
13033;BME280;6583;42.632;23.298;2023-02-10T06:10:13;73781.28;;;-146.40;62.70
13033;BME280;6583;42.632;23.298;2023-02-10T06:12:41;73783.28;;;-146.40;61.87
13033;BME280;6583;42.632;23.298;2023-02-10T06:15:08;73777.22;;;-146.40;62.95
13033;BME280;6583;42.632;23.298;2023-02-10T06:17:35;73769.13;;;-146.40;64.21
13033;BME280;6583;42.632;23.298;2023-02-10T06:20:01;73752.91;;;-146.40;64.22
13033;BME280;6583;42.632;23.298;2023-02-10T06:22:28;73742.78;;;-146.40;63.48
13033;BME280;6583;42.632;23.298;2023-02-10T06:24:55;73728.63;;;-146.40;62.01
13033;BME280;6583;42.632;23.298;2023-02-10T06:27:21;73720.53;;;-146.40;62.83
13033;BME280;6583;42.632;23.298;2023-02-10T06:29:49;73710.41;;;-146.40;62.40
13033;BME280;6583;42.632;23.298;2023-02-10T06:32:16;73708.38;;;-146.40;62.35
13033;BME280;6583;42.632;23.298;2023-02-10T06:34:43;73686.09;;;-146.40;61.78
13033;BME280;6583;42.632;23.298;2023-02-10T06:37:10;73680.03;;;-146.40;61.31
13033;BME280;6583;42.632;23.298;2023-02-10T06:39:37;73667.88;;;-146.40;61.23
13033;BME280;6583;42.632;23.298;2023-02-10T06:42:04;73663.81;;;-146.40;61.60
13033;BME280;6583;42.632;23.298;2023-02-10T06:44:30;73649.63;;;-146.40;61.48
13033;BME280;6583;42.632;23.298;2023-02-10T06:46:58;73641.53;;;-146.40;60.98
13033;BME280;6583;42.632;23.298;2023-02-10T06:49:25;73631.41;;;-146.40;60.66
13033;BME280;6583;42.632;23.298;2023-02-10T06:51:52;73627.38;;;-146.40;60.37
13033;BME280;6583;42.632;23.298;2023-02-10T06:54:20;73627.38;;;-146.40;60.33
13033;BME280;6583;42.632;23.298;2023-02-10T06:56:47;73615.22;;;-146.40;60.47
13033;BME280;6583;42.632;23.298;2023-02-10T06:59:15;73611.16;;;-146.40;60.38
13033;BME280;6583;42.632;23.298;2023-02-10T07:01:42;73607.13;;;-146.40;59.48
13033;BME280;6583;42.632;23.298;2023-02-10T07:04:10;73603.06;;;-146.40;59.26
13033;BME280;6583;42.632;23.298;2023-02-10T07:06:36;73590.91;;;-146.40;58.81
13033;BME280;6583;42.632;23.298;2023-02-10T07:09:03;73586.88;;;-146.40;59.03
13033;BME280;6583;42.632;23.298;2023-02-10T07:11:30;73584.84;;;-146.40;58.98
13033;BME280;6583;42.632;23.298;2023-02-10T07:13:57;73584.84;;;-146.40;58.10
13033;BME280;6583;42.632;23.298;2023-02-10T07:16:23;73578.75;;;-146.40;58.22
13033;BME280;6583;42.632;23.298;2023-02-10T07:18:50;73572.69;;;-146.40;58.40
13033;BME280;6583;42.632;23.298;2023-02-10T07:21:18;73582.81;;;-146.40;58.23
13033;BME280;6583;42.632;23.298;2023-02-10T07:23:44;73582.81;;;-146.40;58.61
13033;BME280;6583;42.632;23.298;2023-02-10T07:26:11;73582.81;;;-146.40;58.84
13033;BME280;6583;42.632;23.298;2023-02-10T07:28:38;73574.72;;;-146.40;59.16
13033;BME280;6583;42.632;23.298;2023-02-10T07:31:05;73570.66;;;-146.40;59.08
13033;BME280;6583;42.632;23.298;2023-02-10T07:33:31;73568.63;;;-146.40;59.45
13033;BME280;6583;42.632;23.298;2023-02-10T07:35:59;73556.50;;;-146.40;58.91
13033;BME280;6583;42.632;23.298;2023-02-10T07:38:28;73552.44;;;-146.40;58.27
13033;BME280;6583;42.632;23.298;2023-02-10T07:40:55;73550.41;;;-146.40;58.80
13033;BME280;6583;42.632;23.298;2023-02-10T07:43:22;73546.38;;;-146.40;58.27
13033;BME280;6583;42.632;23.298;2023-02-10T07:45:48;73540.28;;;-146.40;58.70
13033;BME280;6583;42.632;23.298;2023-02-10T07:48:15;73524.09;;;-146.40;58.02
13033;BME280;6583;42.632;23.298;2023-02-10T07:50:42;73522.06;;;-146.40;58.18
13033;BME280;6583;42.632;23.298;2023-02-10T07:53:09;73518.00;;;-146.40;57.11
13033;BME280;6583;42.632;23.298;2023-02-10T07:55:38;73530.16;;;-146.40;57.42
13033;BME280;6583;42.632;23.298;2023-02-10T07:58:05;73530.16;;;-146.40;57.31
13033;BME280;6583;42.632;23.298;2023-02-10T08:00:32;73536.25;;;-146.40;57.32
13033;BME280;6583;42.632;23.298;2023-02-10T08:02:59;73534.22;;;-146.40;57.15
13033;BME280;6583;42.632;23.298;2023-02-10T08:05:26;73524.09;;;-146.40;58.18
13033;BME280;6583;42.632;23.298;2023-02-10T08:07:53;73522.06;;;-146.40;58.12
13033;BME280;6583;42.632;23.298;2023-02-10T08:10:20;73511.94;;;-146.40;57.39
13033;BME280;6583;42.632;23.298;2023-02-10T08:12:48;73507.88;;;-146.40;57.49
13033;BME280;6583;42.632;23.298;2023-02-10T08:15:15;73491.69;;;-146.40;57.31
13033;BME280;6583;42.632;23.298;2023-02-10T08:17:42;73507.88;;;-146.40;57.58
13033;BME280;6583;42.632;23.298;2023-02-10T08:20:10;73487.63;;;-146.40;58.02
13033;BME280;6583;42.632;23.298;2023-02-10T08:22:37;73483.59;;;-146.40;57.72
13033;BME280;6583;42.632;23.298;2023-02-10T08:25:04;73493.72;;;-146.40;57.36
13033;BME280;6583;42.632;23.298;2023-02-10T08:27:31;73485.63;;;-146.40;57.53
13033;BME280;6583;42.632;23.298;2023-02-10T08:29:59;73469.41;;;-146.40;57.46
13033;BME280;6583;42.632;23.298;2023-02-10T08:32:26;73457.25;;;-146.40;57.16
13033;BME280;6583;42.632;23.298;2023-02-10T08:34:52;73435.00;;;-146.40;56.61
13033;BME280;6583;42.632;23.298;2023-02-10T08:37:19;73439.03;;;-146.40;55.84
13033;BME280;6583;42.632;23.298;2023-02-10T08:39:46;73430.94;;;-146.40;55.23
13033;BME280;6583;42.632;23.298;2023-02-10T08:42:13;73420.81;;;-146.40;55.47
13033;BME280;6583;42.632;23.298;2023-02-10T08:44:40;73406.63;;;-146.40;55.16
13033;BME280;6583;42.632;23.298;2023-02-10T08:47:08;73404.63;;;-146.40;55.69
13033;BME280;6583;42.632;23.298;2023-02-10T08:49:36;73376.28;;;-146.40;55.47
13033;BME280;6583;42.632;23.298;2023-02-10T08:52:03;73360.06;;;-146.40;53.38
13033;BME280;6583;42.632;23.298;2023-02-10T08:54:30;73349.94;;;-146.40;53.12
13033;BME280;6583;42.632;23.298;2023-02-10T08:56:57;73339.81;;;-146.40;53.62
13033;BME280;6583;42.632;23.298;2023-02-10T08:59:23;73313.50;;;-146.40;53.22
13033;BME280;6583;42.632;23.298;2023-02-10T09:01:50;73295.28;;;-146.40;53.04
13033;BME280;6583;42.632;23.298;2023-02-10T09:04:18;73279.06;;;-146.40;51.59
13033;BME280;6583;42.632;23.298;2023-02-10T09:06:45;73305.41;;;-146.40;51.02
13033;BME280;6583;42.632;23.298;2023-02-10T09:09:14;73291.22;;;-146.40;51.98
13033;BME280;6583;42.632;23.298;2023-02-10T09:11:42;73291.22;;;-146.40;51.00
13033;BME280;6583;42.632;23.298;2023-02-10T09:14:09;73275.03;;;-146.40;51.71
13033;BME280;6583;42.632;23.298;2023-02-10T09:16:36;73277.06;;;-146.40;52.27
13033;BME280;6583;42.632;23.298;2023-02-10T09:19:02;73270.97;;;-146.40;51.67
13033;BME280;6583;42.632;23.298;2023-02-10T09:21:31;73270.97;;;-146.40;51.35
13033;BME280;6583;42.632;23.298;2023-02-10T09:23:58;73262.88;;;-146.40;50.82
13033;BME280;6583;42.632;23.298;2023-02-10T09:26:25;73252.75;;;-146.40;51.34
13033;BME280;6583;42.632;23.298;2023-02-10T09:28:51;73291.22;;;-146.40;49.49
13033;BME280;6583;42.632;23.298;2023-02-10T09:31:18;73266.94;;;-146.40;50.02
13033;BME280;6583;42.632;23.298;2023-02-10T09:33:45;73285.16;;;-146.40;49.42
13033;BME280;6583;42.632;23.298;2023-02-10T09:36:13;73275.03;;;-146.40;50.74
13033;BME280;6583;42.632;23.298;2023-02-10T09:38:42;73262.88;;;-146.40;50.51
13033;BME280;6583;42.632;23.298;2023-02-10T09:41:16;73240.59;;;-146.40;51.30
13033;BME280;6583;42.632;23.298;2023-02-10T09:43:57;73214.28;;;-146.40;50.48
13033;BME280;6583;42.632;23.298;2023-02-10T09:46:34;73206.19;;;-146.40;49.54
13033;BME280;6583;42.632;23.298;2023-02-10T09:49:15;73198.09;;;-146.40;49.72
13033;BME280;6583;42.632;23.298;2023-02-10T09:51:53;73194.03;;;-146.40;48.97
13033;BME280;6583;42.632;23.298;2023-02-10T09:54:25;73177.84;;;-146.40;48.52
13033;BME280;6583;42.632;23.298;2023-02-10T09:56:56;73165.69;;;-146.40;48.10
13033;BME280;6583;42.632;23.298;2023-02-10T09:59:24;73151.50;;;-146.40;48.41
13033;BME280;6583;42.632;23.298;2023-02-10T10:01:54;73189.97;;;-146.40;47.58
13033;BME280;6583;42.632;23.298;2023-02-10T10:04:22;73192.00;;;-146.40;49.36
13033;BME280;6583;42.632;23.298;2023-02-10T10:06:51;73185.94;;;-146.40;49.51
13033;BME280;6583;42.632;23.298;2023-02-10T10:09:27;73165.69;;;-146.40;49.30
13033;BME280;6583;42.632;23.298;2023-02-10T10:11:58;73151.50;;;-146.40;47.82
13033;BME280;6583;42.632;23.298;2023-02-10T10:14:27;73139.38;;;-146.40;47.73
13033;BME280;6583;42.632;23.298;2023-02-10T10:17:07;73113.03;;;-146.40;48.21
13033;BME280;6583;42.632;23.298;2023-02-10T10:19:50;73086.72;;;-146.40;47.20
13033;BME280;6583;42.632;23.298;2023-02-10T10:22:30;73074.56;;;-146.40;45.97
13033;BME280;6583;42.632;23.298;2023-02-10T10:25:18;73062.41;;;-146.40;45.46
13033;BME280;6583;42.632;23.298;2023-02-10T10:27:55;73056.34;;;-146.40;45.69
13033;BME280;6583;42.632;23.298;2023-02-10T10:30:32;73052.31;;;-146.40;44.91
13033;BME280;6583;42.632;23.298;2023-02-10T10:33:14;73038.13;;;-146.40;45.07
13033;BME280;6583;42.632;23.298;2023-02-10T10:35:45;73034.06;;;-146.40;44.32
13033;BME280;6583;42.632;23.298;2023-02-10T10:38:13;73032.06;;;-146.40;44.45
13033;BME280;6583;42.632;23.298;2023-02-10T10:40:45;73056.34;;;-146.40;44.25
13033;BME280;6583;42.632;23.298;2023-02-10T10:43:17;73040.16;;;-146.40;43.66
13033;BME280;6583;42.632;23.298;2023-02-10T10:45:49;73040.16;;;-146.40;44.21
13033;BME280;6583;42.632;23.298;2023-02-10T10:48:19;73036.09;;;-146.40;44.59
13033;BME280;6583;42.632;23.298;2023-02-10T10:50:50;73019.91;;;-146.40;44.71
13033;BME280;6583;42.632;23.298;2023-02-10T10:53:19;73003.72;;;-146.40;44.51
13033;BME280;6583;42.632;23.298;2023-02-10T10:55:51;73019.91;;;-146.40;43.83
13033;BME280;6583;42.632;23.298;2023-02-10T10:58:24;73017.88;;;-146.40;43.27
13033;BME280;6583;42.632;23.298;2023-02-10T11:00:54;73017.88;;;-146.40;42.63
13033;BME280;6583;42.632;23.298;2023-02-10T11:03:22;73001.69;;;-146.40;44.32
13033;BME280;6583;42.632;23.298;2023-02-10T11:06:00;72993.59;;;-146.40;44.27
13033;BME280;6583;42.632;23.298;2023-02-10T11:08:34;72989.53;;;-146.40;43.92
13033;BME280;6583;42.632;23.298;2023-02-10T11:11:05;72971.31;;;-146.40;44.21
13033;BME280;6583;42.632;23.298;2023-02-10T11:13:37;72967.25;;;-146.40;43.04
13033;BME280;6583;42.632;23.298;2023-02-10T11:16:06;72959.16;;;-146.40;42.84
13033;BME280;6583;42.632;23.298;2023-02-10T11:18:35;72977.38;;;-146.40;41.70
13033;BME280;6583;42.632;23.298;2023-02-10T11:21:05;72979.41;;;-146.40;42.94
13033;BME280;6583;42.632;23.298;2023-02-10T11:23:36;72963.22;;;-146.40;43.25
13033;BME280;6583;42.632;23.298;2023-02-10T11:26:19;72975.38;;;-146.40;42.10
13033;BME280;6583;42.632;23.298;2023-02-10T11:28:46;72967.25;;;-146.40;42.60
13033;BME280;6583;42.632;23.298;2023-02-10T11:31:28;72975.38;;;-146.40;43.08
13033;BME280;6583;42.632;23.298;2023-02-10T11:33:58;73007.75;;;-146.40;43.42
13033;BME280;6583;42.632;23.298;2023-02-10T11:36:33;73005.72;;;-146.40;43.14
13033;BME280;6583;42.632;23.298;2023-02-10T11:39:02;73003.72;;;-146.40;43.90
13033;BME280;6583;42.632;23.298;2023-02-10T11:41:32;72987.50;;;-146.40;45.41
13033;BME280;6583;42.632;23.298;2023-02-10T11:44:00;72975.38;;;-146.40;44.41
13033;BME280;6583;42.632;23.298;2023-02-10T11:46:29;72959.16;;;-146.40;44.08
13033;BME280;6583;42.632;23.298;2023-02-10T11:48:58;72955.13;;;-146.40;43.60
13033;BME280;6583;42.632;23.298;2023-02-10T11:51:25;72938.91;;;-146.40;43.33
13033;BME280;6583;42.632;23.298;2023-02-10T11:53:52;72932.84;;;-146.40;43.90
13033;BME280;6583;42.632;23.298;2023-02-10T11:56:23;72930.81;;;-146.40;43.77
13033;BME280;6583;42.632;23.298;2023-02-10T11:59:15;72938.91;;;-146.40;43.56
13033;BME280;6583;42.632;23.298;2023-02-10T12:01:52;72930.81;;;-146.40;42.88
13033;BME280;6583;42.632;23.298;2023-02-10T12:04:53;72918.69;;;-146.40;44.36
13033;BME280;6583;42.632;23.298;2023-02-10T12:07:31;72910.56;;;-146.40;44.55
13033;BME280;6583;42.632;23.298;2023-02-10T12:10:08;72890.31;;;-146.40;43.89
13033;BME280;6583;42.632;23.298;2023-02-10T12:12:41;72888.31;;;-146.40;43.71
13033;BME280;6583;42.632;23.298;2023-02-10T12:15:20;72882.22;;;-146.40;42.59
13033;BME280;6583;42.632;23.298;2023-02-10T12:17:56;72884.25;;;-146.40;43.33
13033;BME280;6583;42.632;23.298;2023-02-10T12:20:36;72878.19;;;-146.40;43.30
13033;BME280;6583;42.632;23.298;2023-02-10T12:23:28;72874.13;;;-146.40;43.37
13033;BME280;6583;42.632;23.298;2023-02-10T12:26:04;72880.19;;;-146.40;42.39
13033;BME280;6583;42.632;23.298;2023-02-10T12:28:42;72878.19;;;-146.40;42.24
13033;BME280;6583;42.632;23.298;2023-02-10T12:31:20;72882.22;;;-146.40;42.03
13033;BME280;6583;42.632;23.298;2023-02-10T12:34:04;72870.09;;;-146.40;42.45
13033;BME280;6583;42.632;23.298;2023-02-10T12:36:37;72870.09;;;-146.40;41.87
13033;BME280;6583;42.632;23.298;2023-02-10T12:39:14;72876.16;;;-146.40;41.79
13033;BME280;6583;42.632;23.298;2023-02-10T12:41:52;72853.88;;;-146.40;42.89
13033;BME280;6583;42.632;23.298;2023-02-10T12:44:34;72851.84;;;-146.40;41.43
13033;BME280;6583;42.632;23.298;2023-02-10T12:47:15;72841.75;;;-146.40;42.28
13033;BME280;6583;42.632;23.298;2023-02-10T12:49:58;72837.69;;;-146.40;41.17
13033;BME280;6583;42.632;23.298;2023-02-10T12:52:33;72835.66;;;-146.40;41.37
13033;BME280;6583;42.632;23.298;2023-02-10T12:55:04;72829.59;;;-146.40;41.68